Terminal Aerodrome Forecast
Issued by NWS Portland, OR

Home | Current Version | Previous Version | Text Only | Print | Product List | Glossary On
Versions: 1 2 3 4 5 6 7 8 9 10 11 12 13 14
000
FTUS46 KPQR 222322
TAFTTD
TAF
KTTD 222322Z 2300/2324 31008KT P6SM SKC
     FM230300 32006KT P6SM SKC
     FM230600 09003KT P6SM SKC=

USA.gov is the U.S. government's official web portal to all federal, state and local government web resources and services.